Monastir Skanes, Tunisie

19:26 CET le 28 juillet 2014 (GMT +0100)
Habib Bourguiba (DTMB) Alt. 7 ft | 35.76 °N, 10.75 °E | Change Station

Current weather conditions updated 26 minutes ago

Clear
Ciel dégagé
82 ° F
Paraît 86 ° F
N
16
Vent Variable Vent de Est

Demain il est prévu de faire bien plus chaud qu’aujourd’hui.

Aujourd'hui
Haut(e) -- | Bas -- ° F
--% Risque de précip.
Hier
Haut(e) -- | Bas -- ° F
Precip. -- pouce
5:21 AM 7:24 PM
Lune montante, 3% visible
Pression 29.92 pouce
Visibilité -9999.0 Miles terrestres
Nuages
indice de chaleur 86 ° F
Point de rosée 70 ° F
Humidité 66%
Précipitations 0.00 pouce
Profondeur de la couche neigeuse Non disponible.
UV Non disponible.
Pollen Non disponible.
Qualité de l'air Non disponible.
Flu Activity Non disponible.
METAR DTMB 281800Z 10014KT CAVOK 28/21 Q1013 NOSIG

More Conditions Fewer Conditions

Pression 29.92 pouce
Visibilité -9999.0 Miles terrestres
Nuages
indice de chaleur 86 ° F
Point de rosée 70 ° F
Humidité 66%
Précipitations 0.00 pouce
Profondeur de la couche neigeuse Non disponible.
UV Non disponible.
Pollen Non disponible.
Qualité de l'air Non disponible.
Flu Activity Non disponible.
METAR DTMB 281800Z 10014KT CAVOK 28/21 Q1013 NOSIG

More Conditions Fewer Conditions

10-Day Weather Forecast

Almanac

Astronomie

Jul. 28, 2014 Lever Coucher
Temps réel 05:21 CET 19:24 CET
Crépuscule civil 04:53 CET 19:53 CET
Crépuscule nautique 04:18 CET 20:27 CET
Crépuscule astronomique 03:41 CET 21:04 CET
Lune 06:43 CET 20:03 CET
Durée de lumière visible 14h 59m
Longueur du jour
14h 03m
Tomorrow will be 1m 35s shorter.
Lune montante, 3% of the Moon is Illuminated
Aujourd'hui
Lune montante
août 3
Premier quartier
août 10
Pleine lune
août 17
Dernier quartier
août 25
Nouveau

Extrêmes aujourd'hui

Country Highs Country Lows

Community

WunderPhotos

Upload Photos

1,738,430 Photos téléchargées !

WunderBlogs® & News

Nearby

Qualité de l'air

Not available.

Épaisseur de neige

Not available.

Activité sismique

Ville Distance Mag. Time & Date
No recent earthquake activity has been reported nearby.
Minimum magnitude displayed is 2.5.

Températures des eaux côtières

Lieu Température
Aucun rapport de station

Stations météo à proximité

Emplacement de la station Température indice de chaleur Point de rosée Humidité Vent Precip. Alt. Mise à jour Type
Akouda bei Sousse / Port El Kantaoui, Akouda 82.2 ° F 85 ° F 66 ° F 59% SSE  à  3.3 mph 0.00 pouce / hr 164 ft 7:00 PM CET Normal

Show More Stations Show Fewer Stations